Terminal Aerodrome Forecast
Issued by NWS

Home | Current Version | Previous Version | Text Only | Print | Product List | Glossary On
Versions: 1 2 3 4 5 6 7 8 9 10 11 12 13
000
FTUS44 KCRP 202300
TAFALI
TAF
KALI 202325Z 2100/2124 08009KT P6SM VCSH SCT035 BKN150
      TEMPO 2100/2102 5SM -SHRA BKN035
     FM210200 07004KT P6SM SCT014 BKN200
      TEMPO 2110/2114 4SM BR BKN014
     FM211400 07008KT P6SM VCSH SCT015 BKN025
      TEMPO 2114/2116 BKN015
     FM211800 09012KT P6SM SCT035=

USA.gov is the U.S. government's official web portal to all federal, state and local government web resources and services.